In Rescue
 
Open Full Screen Window  High Contrast Mode
Wind Gusting 00 knots
03
September 19, 2019 4:00 PM CDT
Weather Information
Wind Direction
  160 °
Wind Speed
  03 kt (3 mph)
Wind Gust
  00 kt (0 mph)
Altimeter
29.97 in
Visibility
10 SM
Temperature
28° C
82° F
Dewpoint
17° C
63° F
Humidity
51%
1hr Rain Fall
00.00 in.
24hr Rain Fall
00.06 in.
Sky Condition
Clear
VFR

METAR KSGS 192100Z AUTO 16003KT 10SM CLR 28/17 A2997 RMK AO2 T02750172

FAA Disclaimer: The data displayed is for advisory purposes only and is not to be used for flight planning or operations.